Time;durP1;ratioP1;P1;durP2;ratioP2;P2;SDS_P1;SDS_P2;PMS_P1;PMS_P2;Temp;Humidity;BMP_temperature;BMP_pressure;BME280_temperature;BME280_humidity;BME280_pressure;Samples;Min_cycle;Max_cycle;Signal;HPM_P1;HPM_P2
2022/10/28 00:01:29;;;;;;;20.82;8.08;;;;;;;11.52;82.96;102274.16;1882508;76;21094;-53
2022/10/28 00:04:00;;;;;;;20.52;8.63;;;;;;;11.50;82.99;102267.18;1882448;76;21094;-54
2022/10/28 00:06:34;;;;;;;18.40;7.80;;;;;;;11.49;82.96;102270.70;1882456;76;21037;-55
2022/10/28 00:09:04;;;;;;;21.20;8.63;;;;;;;11.47;83.04;102274.72;1882543;76;21471;-55
2022/10/28 00:11:34;;;;;;;19.82;8.40;;;;;;;11.48;82.94;102273.80;1907257;73;21005;-54
2022/10/28 00:14:05;;;;;;;18.15;8.30;;;;;;;11.45;82.98;102268.56;1945575;73;21456;-53
2022/10/28 00:16:36;;;;;;;23.75;9.13;;;;;;;11.46;83.07;102272.95;1939539;73;21006;-54
2022/10/28 00:19:07;;;;;;;17.85;7.78;;;;;;;11.42;83.23;102276.98;1913443;74;21151;-54
2022/10/28 00:21:37;;;;;;;19.52;8.30;;;;;;;11.42;83.08;102266.01;1913447;75;21026;-54
2022/10/28 00:24:07;;;;;;;19.40;7.75;;;;;;;11.44;82.97;102269.48;1906350;75;21178;-47
2022/10/28 00:26:37;;;;;;;20.90;8.45;;;;;;;11.43;82.94;102282.23;1917637;73;21463;-51
2022/10/28 00:29:15;;;;;;;18.42;7.55;;;;;;;11.43;82.83;102282.23;1948854;73;21091;-51
2022/10/28 00:31:44;;;;;;;21.97;10.55;;;;;;;11.43;82.75;102283.55;1935358;73;21522;-52
2022/10/28 00:34:16;;;;;;;19.90;8.75;;;;;;;11.36;83.02;102281.50;1949025;73;21033;-51
2022/10/28 00:36:46;;;;;;;21.82;9.15;;;;;;;11.30;83.38;102282.03;1923850;73;21029;-50
2022/10/28 00:39:17;;;;;;;21.37;8.98;;;;;;;11.28;83.30;102279.88;1926946;73;21484;-51
2022/10/28 00:41:49;;;;;;;14.80;8.40;;;;;;;11.26;83.43;102275.09;1937463;73;21488;-54
2022/10/28 00:44:43;;;;;;;19.50;8.78;;;;;;;11.21;83.61;102277.78;1940189;73;21126;-50
2022/10/28 00:47:41;;;;;;;18.25;7.80;;;;;;;11.19;83.66;102279.16;1914401;73;21530;-53
2022/10/28 00:50:39;;;;;;;21.55;8.13;;;;;;;11.22;83.53;102281.31;1915467;74;21081;-52
2022/10/28 00:53:19;;;;;;;17.37;7.42;;;;;;;11.20;83.56;102283.97;1915260;75;21108;-52
2022/10/28 00:55:49;;;;;;;20.97;8.80;;;;;;;11.20;83.50;102291.88;1915457;75;21515;-52
2022/10/28 00:58:21;;;;;;;21.00;8.95;;;;;;;11.18;83.69;102281.36;1897280;75;21116;-53
2022/10/28 01:00:49;;;;;;;21.48;9.13;;;;;;;11.13;84.01;102287.15;1882724;76;21491;-53
2022/10/28 01:03:19;;;;;;;21.30;10.05;;;;;;;11.09;84.13;102284.14;1882577;76;21486;-54
2022/10/28 01:05:49;;;;;;;19.80;9.88;;;;;;;11.06;84.24;102284.19;1911152;75;21554;-53
2022/10/28 01:08:18;;;;;;;21.87;8.85;;;;;;;11.08;84.12;102290.30;1915523;75;21146;-53
2022/10/28 01:11:02;;;;;;;19.87;8.95;;;;;;;11.13;84.00;102286.28;1915334;74;21033;-51
2022/10/28 01:13:38;;;;;;;;;;;;;;;11.17;83.92;102281.37;1918291;75;21049;-52
2022/10/28 01:16:15;;;;;;;21.97;8.08;;;;;;;11.23;83.83;102286.98;1915423;75;20105;-52
2022/10/28 01:18:59;;;;;;;15.70;7.03;;;;;;;11.25;83.67;102286.09;1915453;75;20993;-53
2022/10/28 01:21:36;;;;;;;12.00;6.25;;;;;;;11.27;83.61;102286.03;1915736;75;21127;-53
2022/10/28 01:24:10;;;;;;;15.38;6.22;;;;;;;11.27;83.47;102285.61;1915463;75;21127;-53
2022/10/28 01:26:53;;;;;;;13.75;6.62;;;;;;;11.26;83.38;102288.27;1915131;74;21045;-54
2022/10/28 01:29:42;;;;;;;18.80;6.90;;;;;;;11.26;83.37;102289.59;1915453;75;21005;-51
2022/10/28 01:32:46;;;;;;;23.10;11.03;;;;;;;11.28;83.39;102291.75;1915423;75;21053;-52
2022/10/28 01:35:27;;;;;;;23.18;10.60;;;;;;;11.23;83.53;102286.98;1915375;75;21599;-51
2022/10/28 01:38:07;;;;;;;31.23;12.30;;;;;;;11.14;83.80;102295.49;1915317;73;21582;-52
2022/10/28 01:40:39;;;;;;;27.37;11.20;;;;;;;11.10;84.17;102298.19;1909968;74;21487;-53
2022/10/28 01:43:20;;;;;;;24.77;11.48;;;;;;;11.07;84.11;102297.80;1871742;76;21100;-52
2022/10/28 01:46:04;;;;;;;19.48;9.13;;;;;;;11.01;84.41;102305.78;1877659;76;21126;-51
2022/10/28 01:48:38;;;;;;;20.80;9.40;;;;;;;10.97;84.56;102306.73;1877458;76;21041;-53
2022/10/28 01:51:09;;;;;;;23.32;13.75;;;;;;;10.94;84.71;102305.48;1882137;76;21041;-51
2022/10/28 01:53:40;;;;;;;29.65;14.40;;;;;;;10.89;84.84;102296.78;1882474;75;21108;-52
2022/10/28 01:56:12;;;;;;;28.30;13.43;;;;;;;10.86;84.83;102301.63;1882670;76;21098;-51
2022/10/28 01:58:42;;;;;;;21.57;11.35;;;;;;;10.82;84.78;102294.22;1880488;76;21069;-47
2022/10/28 02:01:13;;;;;;;18.67;9.78;;;;;;;10.78;84.66;102301.75;1879302;76;21100;-49
2022/10/28 02:03:41;;;;;;;28.45;10.98;;;;;;;10.76;84.53;102295.63;1879236;76;21040;-48
2022/10/28 02:06:16;;;;;;;30.35;11.80;;;;;;;10.74;84.55;102296.11;1879218;76;21072;-48
2022/10/28 02:09:02;;;;;;;21.45;10.38;;;;;;;10.72;84.57;102289.99;1879242;76;21178;-51
2022/10/28 02:11:52;;;;;;;22.75;9.40;;;;;;;10.69;84.86;102296.62;1879174;76;21553;-47
2022/10/28 02:14:43;;;;;;;29.98;10.68;;;;;;;10.71;84.82;102292.64;1879208;76;21142;-48
2022/10/28 02:17:35;;;;;;;27.50;11.57;;;;;;;10.70;84.90;102294.42;1879145;76;21060;-47
2022/10/28 02:20:16;;;;;;;25.05;10.23;;;;;;;10.72;85.06;102290.45;1879063;75;21045;-50
2022/10/28 02:22:47;;;;;;;28.98;12.33;;;;;;;10.78;85.18;102295.16;1879203;76;21061;-51
2022/10/28 02:25:25;;;;;;;25.97;10.80;;;;;;;10.84;85.15;102292.02;1879250;76;21088;-51
2022/10/28 02:28:02;;;;;;;21.62;10.13;;;;;;;10.87;85.36;102289.34;1879097;76;21495;-51
2022/10/28 02:30:40;;;;;;;18.92;8.93;;;;;;;10.91;85.20;102288.40;1879097;75;21099;-48
2022/10/28 02:33:11;;;;;;;17.82;8.85;;;;;;;10.93;84.98;102286.60;1879071;75;21545;-52
2022/10/28 02:35:42;;;;;;;21.37;8.15;;;;;;;10.93;84.92;102287.92;1879194;76;21045;-52
2022/10/28 02:38:17;;;;;;;19.45;8.60;;;;;;;10.94;84.72;102289.67;1878850;75;21119;-50
2022/10/28 02:40:49;;;;;;;23.18;10.25;;;;;;;10.93;84.64;102295.83;1886780;75;21134;-53
2022/10/28 02:43:19;;;;;;;24.27;10.00;;;;;;;10.93;84.54;102301.09;1912112;74;21053;-51
2022/10/28 02:45:50;;;;;;;18.57;7.62;;;;;;;10.94;84.46;102304.17;1911863;75;21557;-51
2022/10/28 02:48:34;;;;;;;20.62;7.83;;;;;;;10.91;84.42;102304.20;1911866;75;21487;-51
2022/10/28 02:51:17;;;;;;;20.48;7.55;;;;;;;10.91;84.42;102308.16;1911940;74;21546;-51
2022/10/28 02:53:52;;;;;;;23.73;9.45;;;;;;;10.94;84.45;102306.81;1906870;75;21111;-52
2022/10/28 02:56:21;;;;;;;22.37;8.95;;;;;;;10.94;84.60;102306.34;1911770;74;21122;-53
2022/10/28 02:58:51;;;;;;;20.05;8.20;;;;;;;10.91;84.91;102302.89;1888700;75;21534;-53
2022/10/28 03:01:19;;;;;;;21.82;9.03;;;;;;;10.86;85.09;102300.77;1882469;76;21076;-53
2022/10/28 03:03:48;;;;;;;24.10;12.20;;;;;;;10.84;85.27;102297.28;1882618;76;21013;-53
2022/10/28 03:06:17;;;;;;;20.55;10.10;;;;;;;10.85;85.39;102299.91;1882526;76;21118;-53
2022/10/28 03:08:45;;;;;;;19.15;8.03;;;;;;;10.85;85.33;102296.41;1882530;76;21053;-53
2022/10/28 03:11:14;;;;;;;20.50;8.80;;;;;;;10.84;85.27;102295.97;1882576;76;21037;-53
2022/10/28 03:13:43;;;;;;;22.15;9.25;;;;;;;10.81;85.32;102299.08;1882431;76;21009;-53
2022/10/28 03:16:12;;;;;;;29.35;10.45;;;;;;;10.78;85.53;102296.48;1882571;76;21123;-53
2022/10/28 03:18:40;;;;;;;26.27;10.55;;;;;;;10.79;85.48;102292.97;1882527;76;21065;-48
2022/10/28 03:21:09;;;;;;;23.70;10.82;;;;;;;10.79;85.67;102292.97;1882689;76;21291;-47
2022/10/28 03:23:38;;;;;;;29.18;10.08;;;;;;;10.79;86.00;102289.02;1882524;76;21032;-46
2022/10/28 03:26:06;;;;;;;19.48;8.63;;;;;;;10.84;86.02;102284.11;1882365;76;21009;-49
2022/10/28 03:28:35;;;;;;;20.75;8.30;;;;;;;10.85;85.83;102281.91;1882581;76;21139;-48
2022/10/28 03:31:04;;;;;;;21.25;8.40;;;;;;;10.87;85.73;102284.08;1896880;75;21021;-52
2022/10/28 03:33:33;;;;;;;19.70;7.78;;;;;;;10.88;85.51;102293.28;1915328;75;21025;-50
2022/10/28 03:36:01;;;;;;;28.15;10.90;;;;;;;10.88;85.39;102289.75;1915248;75;21053;-51
2022/10/28 03:38:30;;;;;;;30.77;10.95;;;;;;;10.87;85.38;102291.52;1915382;75;21576;-51
2022/10/28 03:40:59;;;;;;;55.60;19.77;;;;;;;10.87;85.44;102291.98;1915221;75;21025;-48
2022/10/28 03:43:27;;;;;;;28.52;11.78;;;;;;;10.88;85.51;102294.59;1914841;75;21033;-54
2022/10/28 03:45:56;;;;;;;29.92;12.65;;;;;;;10.90;85.56;102290.59;1915347;75;21123;-54
2022/10/28 03:48:25;;;;;;;30.32;11.63;;;;;;;10.90;85.55;102287.95;1910427;75;21518;-54
2022/10/28 03:50:55;;;;;;;35.73;13.88;;;;;;;10.91;85.53;102293.21;1915343;75;21452;-54
2022/10/28 03:53:23;;;;;;;38.80;13.88;;;;;;;10.95;85.39;102296.67;1892737;75;21573;-53
2022/10/28 03:55:56;;;;;;;34.78;14.68;;;;;;;10.97;85.29;102294.45;1882513;76;21475;-52
2022/10/28 03:58:26;;;;;;;31.48;11.80;;;;;;;10.97;85.28;102301.47;1901384;75;21009;-51
2022/10/28 04:00:56;;;;;;;25.35;8.95;;;;;;;10.97;85.28;102310.69;1915496;75;21492;-48
2022/10/28 04:03:25;;;;;;;30.60;11.65;;;;;;;10.99;85.14;102309.80;1900611;75;21072;-49
2022/10/28 04:05:54;;;;;;;79.17;30.12;;;;;;;11.02;84.99;102316.77;1881400;76;21512;-47
2022/10/28 04:08:23;;;;;;;87.22;35.92;;;;;;;11.01;84.91;102318.55;1880982;76;21041;-47
2022/10/28 04:10:52;;;;;;;24.15;11.22;;;;;;;11.05;84.76;102325.95;1880970;76;21041;-49
2022/10/28 04:13:20;;;;;;;21.27;11.25;;;;;;;11.06;84.68;102322.41;1882159;75;21527;-52
2022/10/28 04:15:49;;;;;;;17.07;7.95;;;;;;;11.07;84.62;102317.58;1882521;76;21467;-52
2022/10/28 04:18:18;;;;;;;19.20;8.58;;;;;;;11.03;84.76;102312.36;1882664;75;21045;-52
2022/10/28 04:20:47;;;;;;;21.00;8.10;;;;;;;10.98;84.93;102312.45;1882488;76;21013;-51
2022/10/28 04:23:17;;;;;;;16.40;7.53;;;;;;;11.00;84.91;102319.88;1882675;75;21102;-51
2022/10/28 04:25:46;;;;;;;19.62;7.42;;;;;;;11.02;84.74;102319.41;1913828;75;21029;-50
2022/10/28 04:28:15;;;;;;;15.95;7.58;;;;;;;11.04;84.64;102318.92;1915370;75;21106;-51
2022/10/28 04:30:45;;;;;;;21.85;9.28;;;;;;;11.06;84.58;102323.73;1915260;75;21099;-52
2022/10/28 04:33:14;;;;;;;26.30;8.83;;;;;;;11.08;84.52;102328.98;1915298;75;21152;-48
2022/10/28 04:35:43;;;;;;;19.73;7.67;;;;;;;11.07;84.44;102326.80;1893279;74;21060;-49
2022/10/28 04:38:13;;;;;;;18.00;7.80;;;;;;;11.10;84.37;102332.03;1882434;76;21044;-49
2022/10/28 04:40:41;;;;;;;18.45;8.23;;;;;;;11.14;84.32;102328.87;1882509;76;21444;-48
2022/10/28 04:43:10;;;;;;;18.35;7.22;;;;;;;11.20;84.17;102333.61;1897662;75;21036;-49
2022/10/28 04:45:39;;;;;;;18.90;7.08;;;;;;;11.30;84.03;102334.77;1915278;74;21128;-51
2022/10/28 04:48:09;;;;;;;16.48;6.42;;;;;;;11.41;83.96;102340.73;1915106;75;21094;-51
2022/10/28 04:50:38;;;;;;;15.10;6.80;;;;;;;11.52;83.84;102342.73;1915357;74;21022;-50
2022/10/28 04:53:09;;;;;;;18.48;7.05;;;;;;;11.66;83.66;102348.25;1912559;74;21105;-51
2022/10/28 04:55:38;;;;;;;18.80;6.72;;;;;;;11.80;83.43;102351.48;1915363;75;21040;-51
2022/10/28 04:58:08;;;;;;;16.45;6.25;;;;;;;11.92;83.15;102343.38;1900689;75;21032;-50
2022/10/28 05:00:37;;;;;;;16.62;6.50;;;;;;;12.05;82.87;102345.79;1882585;75;21048;-48
2022/10/28 05:03:06;;;;;;;17.00;7.83;;;;;;;12.14;82.82;102338.55;1883623;75;21056;-49
2022/10/28 05:05:35;;;;;;;16.75;6.78;;;;;;;12.28;82.58;102337.39;1882669;74;21077;-52
2022/10/28 05:08:03;;;;;;;14.87;6.55;;;;;;;12.36;82.29;102348.22;1882492;76;21087;-51
2022/10/28 05:10:32;;;;;;;19.42;7.95;;;;;;;12.42;82.17;102354.28;1882374;76;21158;-49
2022/10/28 05:13:01;;;;;;;17.62;7.37;;;;;;;12.45;81.97;102347.59;1882524;76;21024;-49
2022/10/28 05:15:30;;;;;;;14.90;6.22;;;;;;;12.46;81.85;102351.98;1883393;75;21064;-50
2022/10/28 05:17:59;;;;;;;14.05;7.40;;;;;;;12.56;81.86;102349.58;1882781;75;21072;-50
2022/10/28 05:20:27;;;;;;;17.85;6.92;;;;;;;12.73;81.75;102351.39;1882668;76;21064;-48
2022/10/28 05:22:56;;;;;;;12.90;6.10;;;;;;;12.90;81.44;102351.46;1882424;76;21064;-47
2022/10/28 05:25:25;;;;;;;19.02;6.47;;;;;;;13.09;80.95;102356.72;1884636;75;21021;-50
2022/10/28 05:27:55;;;;;;;15.78;6.97;;;;;;;13.28;80.53;102367.75;1882656;75;21069;-49
2022/10/28 05:30:24;;;;;;;15.55;6.03;;;;;;;13.42;80.26;102363.91;1882499;76;21064;-49
2022/10/28 05:33:02;;;;;;;15.88;7.72;;;;;;;13.58;79.98;102361.30;1882499;76;21005;-49
2022/10/28 05:35:32;;;;;;;14.47;6.30;;;;;;;13.83;79.73;102365.50;1884585;75;21045;-51
2022/10/28 05:38:01;;;;;;;17.57;6.80;;;;;;;14.06;79.39;102361.36;1882573;75;21155;-50
2022/10/28 05:40:31;;;;;;;11.70;6.25;;;;;;;14.23;79.03;102356.44;1882445;76;21048;-50
2022/10/28 05:43:01;;;;;;;17.25;6.95;;;;;;;14.53;78.90;102353.80;1882509;76;21106;-49
2022/10/28 05:45:30;;;;;;;17.48;6.55;;;;;;;14.90;78.63;102351.37;1882441;76;21123;-52
2022/10/28 05:47:59;;;;;;;15.53;6.62;;;;;;;15.10;78.46;102360.49;1882481;75;21172;-47
2022/10/28 05:50:27;;;;;;;14.25;5.78;;;;;;;15.15;78.35;102356.77;1882595;76;21111;-47
2022/10/28 05:52:57;;;;;;;11.70;5.05;;;;;;;15.10;77.94;102356.52;1882572;76;21076;-47
2022/10/28 05:55:28;;;;;;;15.63;6.28;;;;;;;15.05;77.89;102354.88;1882706;76;21471;-51
2022/10/28 05:57:57;;;;;;;13.15;5.85;;;;;;;15.00;77.74;102357.27;1894895;75;21033;-51
2022/10/28 06:00:26;;;;;;;16.10;5.45;;;;;;;14.86;77.51;102357.70;1915261;75;21033;-53
2022/10/28 06:03:05;;;;;;;13.70;5.87;;;;;;;14.81;77.63;102359.18;1915341;75;21068;-54
2022/10/28 06:05:34;;;;;;;14.60;6.20;;;;;;;14.80;77.49;102356.10;1912691;74;21605;-54
2022/10/28 06:08:04;;;;;;;13.93;5.65;;;;;;;14.70;77.18;102365.27;1915499;75;21084;-54
2022/10/28 06:10:34;;;;;;;15.50;6.78;;;;;;;14.69;77.20;102358.69;1915396;75;21061;-52
2022/10/28 06:13:02;;;;;;;17.52;6.78;;;;;;;14.73;77.02;102356.34;1915316;75;21076;-52
2022/10/28 06:15:31;;;;;;;14.18;5.85;;;;;;;14.74;77.00;102358.09;1915415;75;21033;-51
2022/10/28 06:18:00;;;;;;;16.37;6.60;;;;;;;14.77;76.92;102353.57;1915355;75;21053;-50
2022/10/28 06:20:29;;;;;;;17.40;6.65;;;;;;;14.79;76.43;102357.03;1915456;74;21110;-52
2022/10/28 06:22:57;;;;;;;11.43;5.67;;;;;;;14.72;75.96;102362.12;1915375;75;21033;-52
2022/10/28 06:25:27;;;;;;;12.47;6.25;;;;;;;14.61;75.88;102362.44;1915309;74;21021;-54
2022/10/28 06:27:57;;;;;;;13.55;5.80;;;;;;;14.37;75.42;102370.62;1915401;75;21104;-50
2022/10/28 06:30:27;;;;;;;17.02;6.00;;;;;;;14.17;75.49;102372.52;1915383;75;21092;-53
2022/10/28 06:32:59;;;;;;;16.10;6.50;;;;;;;14.05;75.68;102372.84;1915419;75;21036;-51
2022/10/28 06:35:28;;;;;;;13.43;6.20;;;;;;;14.04;75.88;102379.07;1915526;75;21041;-52
2022/10/28 06:37:57;;;;;;;16.55;6.55;;;;;;;14.04;75.88;102379.07;1915235;75;20989;-51
2022/10/28 06:40:26;;;;;;;17.85;6.28;;;;;;;14.04;75.89;102370.66;1915478;75;21033;-49
2022/10/28 06:43:03;;;;;;;15.90;6.62;;;;;;;14.03;75.81;102373.34;1915412;75;21549;-48
2022/10/28 06:45:34;;;;;;;15.32;6.65;;;;;;;14.01;75.89;102369.41;1915534;75;21033;-48
2022/10/28 06:48:05;;;;;;;16.52;6.60;;;;;;;14.03;75.96;102376.85;1915541;75;21069;-51
2022/10/28 06:50:35;;;;;;;14.90;5.37;;;;;;;14.05;75.85;102371.09;1915457;75;21032;-46
2022/10/28 06:53:04;;;;;;;17.35;5.53;;;;;;;14.05;75.66;102366.22;1915480;75;21057;-48
2022/10/28 06:55:33;;;;;;;22.25;7.20;;;;;;;14.15;75.83;102367.72;1915399;75;21080;-49
2022/10/28 06:58:03;;;;;;;12.18;5.17;;;;;;;14.29;75.86;102373.94;1902077;75;21045;-50
2022/10/28 07:00:32;;;;;;;10.23;4.45;;;;;;;14.36;75.69;102374.17;1882571;76;21467;-51
2022/10/28 07:03:01;;;;;;;11.85;5.20;;;;;;;14.43;75.57;102369.11;1882436;76;21071;-47
2022/10/28 07:05:30;;;;;;;10.10;4.50;;;;;;;14.55;75.32;102370.55;1882566;75;21016;-47
2022/10/28 07:07:59;;;;;;;13.15;5.20;;;;;;;14.72;75.05;102367.85;1882671;76;21068;-48
2022/10/28 07:10:27;;;;;;;11.57;4.80;;;;;;;14.86;74.77;102374.94;1882589;76;21040;-51
2022/10/28 07:12:56;;;;;;;12.78;5.20;;;;;;;15.05;74.44;102370.80;1882715;76;20997;-53
2022/10/28 07:15:25;;;;;;;8.05;4.42;;;;;;;15.24;74.14;102375.52;1882528;76;21451;-49
2022/10/28 07:17:56;;;;;;;13.72;5.60;;;;;;;15.30;74.08;102376.63;1882509;76;21122;-48
2022/10/28 07:20:28;;;;;;;11.12;4.37;;;;;;;15.68;73.66;102371.83;1882245;76;21041;-52
2022/10/28 07:23:01;;;;;;;9.10;4.67;;;;;;;16.27;73.01;102379.95;1882545;75;21024;-51
2022/10/28 07:25:31;;;;;;;9.38;4.40;;;;;;;18.27;70.37;102376.25;1882703;76;21017;-50
2022/10/28 07:28:00;;;;;;;8.23;4.33;;;;;;;20.11;66.84;102365.48;1882487;76;21008;-52
2022/10/28 07:30:29;;;;;;;8.48;3.90;;;;;;;21.66;63.28;102369.27;1882561;76;21056;-47
2022/10/28 07:33:02;;;;;;;8.73;3.70;;;;;;;22.99;60.45;102361.33;1882555;76;21471;-53
2022/10/28 07:35:32;;;;;;;6.95;3.52;;;;;;;24.03;56.81;102351.19;1882665;76;21044;-53
2022/10/28 07:38:00;;;;;;;10.78;4.35;;;;;;;24.08;56.04;102349.03;1882693;76;21463;-54
2022/10/28 07:40:29;;;;;;;7.25;3.42;;;;;;;22.95;57.75;102358.48;1882421;76;21134;-55
2022/10/28 07:42:59;;;;;;;8.08;3.00;;;;;;;21.84;59.05;102365.46;1882473;76;21100;-53
2022/10/28 07:45:27;;;;;;;8.15;3.22;;;;;;;20.61;60.20;102361.87;1882451;76;21479;-46
2022/10/28 07:47:56;;;;;;;7.47;3.50;;;;;;;19.61;61.52;102357.33;1882461;76;21076;-48
2022/10/28 07:50:25;;;;;;;6.22;2.70;;;;;;;18.90;61.70;102363.98;1882450;76;21083;-53
2022/10/28 07:52:54;;;;;;;7.53;2.40;;;;;;;18.30;62.28;102368.13;1882396;76;21060;-46
2022/10/28 07:55:24;;;;;;;6.97;2.90;;;;;;;17.92;62.53;102373.36;1882392;76;21402;-49
2022/10/28 07:57:54;;;;;;;7.12;3.45;;;;;;;17.73;62.67;102371.47;1893997;75;21130;-47
2022/10/28 08:00:23;;;;;;;6.15;2.58;;;;;;;18.17;61.90;102366.92;1915258;75;21072;-50
2022/10/28 08:02:52;;;;;;;8.80;3.45;;;;;;;18.07;61.97;102375.81;1915160;75;21151;-51
2022/10/28 08:05:20;;;;;;;8.93;3.50;;;;;;;17.65;62.22;102378.94;1915270;75;21440;-51
2022/10/28 08:07:49;;;;;;;9.53;4.15;;;;;;;17.37;62.56;102377.88;1915123;75;21017;-51
2022/10/28 08:10:18;;;;;;;8.28;4.45;;;;;;;17.19;62.95;102378.20;1915262;75;21069;-51
2022/10/28 08:12:48;;;;;;;10.43;4.00;;;;;;;17.18;63.01;102376.45;1915416;74;21507;-51
2022/10/28 08:15:19;;;;;;;8.58;3.70;;;;;;;18.24;61.61;102373.72;1915253;75;21041;-50
2022/10/28 08:17:50;;;;;;;7.15;2.62;;;;;;;19.21;60.04;102379.37;1915249;73;21030;-52
2022/10/28 08:20:18;;;;;;;7.62;3.60;;;;;;;19.16;59.91;102370.72;1913972;74;21500;-51
2022/10/28 08:22:47;;;;;;;5.65;2.58;;;;;;;18.61;60.65;102378.69;1915236;75;21045;-51
2022/10/28 08:25:16;;;;;;;6.55;2.45;;;;;;;18.02;61.09;102382.70;1915247;74;21118;-50
2022/10/28 08:27:45;;;;;;;6.87;3.02;;;;;;;17.51;61.71;102382.17;1915243;75;21365;-51
2022/10/28 08:30:14;;;;;;;10.68;4.92;;;;;;;17.13;62.18;102379.77;1915248;75;21048;-51
2022/10/28 08:32:42;;;;;;;11.60;4.72;;;;;;;16.99;62.76;102376.34;1915128;75;21037;-51
2022/10/28 08:35:11;;;;;;;9.08;3.12;;;;;;;16.94;62.82;102376.51;1915268;75;21079;-51
2022/10/28 08:37:40;;;;;;;6.30;2.55;;;;;;;17.31;62.15;102376.34;1915482;75;21025;-51
2022/10/28 08:40:11;;;;;;;5.87;1.98;;;;;;;18.27;60.29;102373.59;1915215;75;21029;-50
2022/10/28 08:42:46;;;;;;;8.30;2.47;;;;;;;19.81;57.42;102364.83;1915243;75;21029;-53
2022/10/28 08:45:27;;;;;;;5.70;2.87;;;;;;;21.27;54.89;102374.18;1915373;74;21078;-51
2022/10/28 08:48:07;;;;;;;7.35;3.08;;;;;;;21.26;54.65;102374.27;1913881;74;21107;-53
2022/10/28 08:50:49;;;;;;;6.90;2.25;;;;;;;20.36;55.77;102379.27;1915187;74;21069;-51
2022/10/28 08:53:20;;;;;;;6.05;2.20;;;;;;;19.64;57.16;102371.88;1915299;75;21013;-51
2022/10/28 08:55:52;;;;;;;6.67;2.37;;;;;;;19.30;57.88;102376.72;1915333;73;21033;-50
2022/10/28 08:58:26;;;;;;;5.87;2.85;;;;;;;19.96;56.76;102365.83;1897584;74;21004;-51
2022/10/28 09:01:02;;;;;;;4.00;2.10;;;;;;;21.58;53.50;102367.91;1882337;75;21005;-51
2022/10/28 09:03:33;;;;;;;3.85;1.95;;;;;;;23.45;50.30;102353.39;1881845;76;21505;-49
2022/10/28 09:06:05;;;;;;;5.30;1.80;;;;;;;24.10;48.00;102340.36;1882369;76;21040;-50
2022/10/28 09:08:45;;;;;;;2.90;1.72;;;;;;;25.19;45.82;102339.09;1882443;75;21153;-53
2022/10/28 09:11:38;;;;;;;3.62;2.00;;;;;;;26.31;44.12;102336.76;1881120;75;21092;-51
2022/10/28 09:14:12;;;;;;;2.30;1.60;;;;;;;27.28;43.34;102335.05;1882477;76;21033;-53
2022/10/28 09:16:47;;;;;;;5.22;1.80;;;;;;;25.54;45.14;102330.66;1881575;76;21163;-54
2022/10/28 09:19:26;;;;;;;3.42;1.42;;;;;;;23.36;47.72;102335.20;1880776;74;21111;-54
2022/10/28 09:21:57;;;;;;;3.72;1.42;;;;;;;21.91;49.70;102340.00;1881679;76;21666;-54
2022/10/28 09:24:41;;;;;;;5.15;1.80;;;;;;;20.89;51.04;102337.08;1882460;76;21107;-54
2022/10/28 09:27:13;;;;;;;;;;;;;;;21.96;49.32;102333.84;1882825;76;21108;-54
2022/10/28 09:30:05;;;;;;;3.75;1.98;;;;;;;23.86;46.89;102332.20;1883436;74;20119;-55
2022/10/28 09:32:42;;;;;;;8.25;2.05;;;;;;;25.42;44.78;102327.94;1881101;76;21550;-51
2022/10/28 09:35:17;;;;;;;5.10;1.80;;;;;;;26.32;43.60;102320.91;1881713;76;21072;-55
2022/10/28 09:37:54;;;;;;;3.08;1.67;;;;;;;25.51;43.79;102316.06;1882486;76;21521;-55
2022/10/28 09:40:25;;;;;;;6.72;1.50;;;;;;;23.93;46.07;102324.58;1882442;76;21108;-56
2022/10/28 09:43:24;;;;;;;5.42;2.15;;;;;;;22.73;47.73;102329.48;1882500;75;21154;-56
2022/10/28 09:45:57;;;;;;;7.10;2.00;;;;;;;21.83;48.92;102328.87;1882511;75;21468;-56
2022/10/28 09:48:31;;;;;;;4.67;1.52;;;;;;;20.95;49.75;102328.72;1882604;76;21088;-56
2022/10/28 09:51:01;;;;;;;2.22;0.98;;;;;;;21.16;49.21;102327.07;1881555;76;21069;-56
2022/10/28 09:53:44;;;;;;;4.45;1.57;;;;;;;20.39;49.37;102328.24;1882470;76;21471;-59
2022/10/28 09:56:14;;;;;;;3.83;1.72;;;;;;;19.83;50.55;102329.53;1882502;75;21126;-59
2022/10/28 09:58:45;;;;;;;4.72;2.25;;;;;;;19.36;51.34;102331.48;1904629;75;21049;-59
2022/10/28 10:01:16;;;;;;;4.78;1.80;;;;;;;18.92;52.16;102331.89;1915286;75;21558;-60
2022/10/28 10:03:50;;;;;;;2.75;1.52;;;;;;;19.13;52.63;102336.18;1915481;75;21593;-59
2022/10/28 10:06:22;;;;;;;3.45;1.82;;;;;;;19.53;52.44;102332.83;1915235;75;21033;-60
2022/10/28 10:08:50;;;;;;;3.10;1.70;;;;;;;20.08;51.32;102323.71;1915253;75;21029;-58
2022/10/28 10:11:31;;;;;;;4.10;1.50;;;;;;;19.93;50.67;102326.73;1915388;75;21057;-57
2022/10/28 10:14:02;;;;;;;3.47;1.80;;;;;;;19.60;51.36;102334.22;1915317;75;21468;-57
2022/10/28 10:16:42;;;;;;;4.15;1.98;;;;;;;19.33;51.78;102325.84;1915208;74;21021;-57
2022/10/28 10:19:11;;;;;;;3.75;1.92;;;;;;;19.02;52.06;102327.84;1915352;75;21132;-57
2022/10/28 10:21:51;;;;;;;3.85;1.90;;;;;;;18.99;52.64;102326.65;1915231;75;21025;-60
2022/10/28 10:24:34;;;;;;;3.92;1.82;;;;;;;18.90;52.70;102322.17;1912266;73;21019;-57
2022/10/28 10:27:15;;;;;;;6.00;1.72;;;;;;;18.84;52.93;102315.78;1901776;73;21045;-56
2022/10/28 10:29:52;;;;;;;3.58;1.80;;;;;;;18.80;52.97;102312.84;1925904;73;21112;-56
2022/10/28 10:32:26;;;;;;;3.90;1.90;;;;;;;18.84;52.85;102318.45;1921302;73;21099;-60
2022/10/28 10:35:02;;;;;;;5.20;2.10;;;;;;;18.77;52.67;102314.80;1946313;73;21053;-55
2022/10/28 10:37:36;;;;;;;5.08;1.98;;;;;;;18.71;52.92;102312.81;1937816;73;21033;-57
2022/10/28 10:40:07;;;;;;;5.40;2.10;;;;;;;18.78;53.24;102309.86;1913386;75;21142;-59
2022/10/28 10:42:36;;;;;;;6.97;2.45;;;;;;;18.69;53.30;102317.36;1914741;74;21499;-57
2022/10/28 10:45:17;;;;;;;5.58;2.22;;;;;;;18.61;53.55;102311.98;1915301;74;21104;-58
2022/10/28 10:47:46;;;;;;;4.75;2.00;;;;;;;18.57;53.75;102313.08;1909313;74;21537;-58
2022/10/28 10:50:32;;;;;;;4.95;2.00;;;;;;;18.42;54.09;102316.01;1933398;73;21452;-58
2022/10/28 10:53:02;;;;;;;4.67;2.12;;;;;;;18.34;54.29;102312.38;1944723;73;21187;-57
2022/10/28 10:55:40;;;;;;;4.45;2.22;;;;;;;18.20;54.64;102320.14;1923264;73;21053;-53
2022/10/28 10:58:17;;;;;;;3.77;2.77;;;;;;;18.03;54.89;102321.78;1934477;73;21024;-55
2022/10/28 11:00:55;;;;;;;3.50;2.35;;;;;;;17.97;55.18;102325.20;1929841;73;21046;-55
2022/10/28 11:03:29;;;;;;;5.70;2.55;;;;;;;17.77;55.36;102324.72;1948953;73;21025;-57
2022/10/28 11:06:00;;;;;;;6.85;2.47;;;;;;;17.52;55.84;102329.77;1919700;73;21072;-59
2022/10/28 11:08:38;;;;;;;5.87;2.35;;;;;;;17.45;56.35;102323.00;1918129;75;21086;-57
2022/10/28 11:11:09;;;;;;;6.55;2.47;;;;;;;17.49;56.43;102327.26;1917539;74;21032;-58
2022/10/28 11:13:38;;;;;;;5.40;2.45;;;;;;;17.49;56.38;102318.80;1917781;75;21487;-57
2022/10/28 11:16:19;;;;;;;8.70;2.83;;;;;;;17.43;56.41;102328.39;1918129;75;21016;-56
2022/10/28 11:18:50;;;;;;;6.60;2.72;;;;;;;17.36;56.63;102331.77;1900504;75;21020;-56
2022/10/28 11:21:42;;;;;;;4.85;2.42;;;;;;;17.38;56.83;102322.39;1885187;76;21067;-56
2022/10/28 11:24:26;;;;;;;4.53;2.35;;;;;;;17.38;56.96;102328.19;1884501;76;21028;-56
2022/10/28 11:27:12;;;;;;;;;;;;;;;17.35;57.12;102330.49;1887448;76;21008;-57
2022/10/28 11:29:41;;;;;;;4.40;2.20;;;;;;;17.40;57.12;102333.84;1882967;76;20138;-54
2022/10/28 11:32:43;;;;;;;6.00;2.05;;;;;;;17.36;56.99;102334.91;1860488;76;21731;-56
2022/10/28 11:35:29;;;;;;;3.98;2.10;;;;;;;17.28;57.14;102333.90;1841559;77;21070;-57
2022/10/28 11:38:09;;;;;;;4.28;2.52;;;;;;;17.15;57.35;102333.98;1830614;78;21497;-57
2022/10/28 11:41:15;;;;;;;6.60;2.20;;;;;;;17.05;57.60;102333.98;1842336;77;21067;-58
2022/10/28 11:43:50;;;;;;;4.78;2.22;;;;;;;16.95;57.88;102333.02;1853664;77;21023;-57
2022/10/28 11:46:38;;;;;;;4.95;2.33;;;;;;;16.88;58.22;102329.34;1853335;77;21523;-58